createdAt,value
2022-10-20T07:40:07.230Z,6.30
2022-10-20T07:56:07.180Z,6.90
2022-10-20T08:11:34.347Z,7.18
2022-10-20T08:14:06.852Z,7.41
2022-10-20T08:31:43.893Z,7.79
2022-10-20T08:42:08.146Z,7.98
2022-10-20T08:48:51.627Z,8.13
2022-10-20T08:52:01.338Z,8.25
2022-10-20T08:58:52.683Z,8.51
2022-10-20T09:05:38.408Z,8.63
2022-10-20T09:11:57.150Z,8.71
2022-10-20T09:15:20.981Z,8.86
2022-10-20T09:19:02.775Z,8.89
2022-10-20T09:23:28.336Z,8.93
2022-10-20T09:30:23.740Z,9.12
2022-10-20T09:32:50.699Z,9.19
2022-10-20T09:35:23.187Z,9.23
2022-10-20T09:37:57.122Z,9.28
2022-10-20T09:40:26.235Z,9.40
2022-10-20T09:42:56.030Z,9.47
2022-10-20T09:45:29.311Z,9.57
2022-10-20T09:48:00.821Z,9.66
2022-10-20T09:50:31.348Z,9.90
2022-10-20T09:52:59.672Z,9.95
2022-10-20T09:55:42.573Z,9.96
2022-10-20T09:58:30.191Z,10.01
2022-10-20T10:01:03.471Z,10.07
2022-10-20T10:03:39.437Z,10.23
2022-10-20T10:07:12.920Z,10.31
2022-10-20T10:10:08.166Z,10.34
2022-10-20T10:12:46.387Z,10.40
2022-10-20T10:16:07.254Z,10.42
2022-10-20T10:19:16.843Z,10.49
2022-10-20T10:22:08.369Z,10.65
2022-10-20T10:24:47.671Z,10.77
2022-10-20T10:27:26.331Z,10.79
2022-10-20T10:29:54.479Z,10.87
2022-10-20T10:32:26.832Z,10.92
2022-10-20T10:35:12.358Z,11.07
2022-10-20T10:37:40.734Z,11.20
2022-10-20T10:40:38.857Z,11.16
2022-10-20T10:43:08.499Z,11.30
2022-10-20T10:46:05.938Z,11.39
2022-10-20T10:48:59.570Z,11.47
2022-10-20T10:51:53.656Z,11.47
2022-10-20T10:54:44.443Z,11.63
2022-10-20T10:57:30.144Z,11.55
2022-10-20T10:59:59.913Z,11.89
2022-10-20T11:02:38.137Z,12.00
2022-10-20T11:05:29.926Z,12.02
2022-10-20T11:08:09.434Z,12.04
2022-10-20T11:10:45.141Z,12.19
2022-10-20T11:13:24.479Z,12.28
2022-10-20T11:15:59.983Z,12.11
2022-10-20T11:18:38.791Z,12.14
2022-10-20T11:21:42.663Z,12.17
2022-10-20T11:24:17.770Z,12.14
2022-10-20T11:26:50.558Z,12.23
2022-10-20T11:29:40.420Z,12.23
2022-10-20T11:32:26.760Z,12.23
2022-10-20T11:35:23.189Z,12.37
2022-10-20T11:38:24.367Z,12.52
2022-10-20T11:40:55.510Z,12.86
2022-10-20T11:43:27.240Z,13.00
2022-10-20T11:46:13.424Z,13.20
2022-10-20T11:48:54.558Z,13.12
2022-10-20T11:51:40.674Z,13.24
2022-10-20T11:54:16.351Z,13.32
2022-10-20T11:57:08.912Z,13.26
2022-10-20T11:59:39.134Z,13.35
2022-10-20T12:02:29.675Z,13.56
2022-10-20T12:05:11.988Z,13.93
2022-10-20T12:08:00.810Z,13.81
2022-10-20T12:10:54.547Z,13.83
2022-10-20T12:13:28.869Z,13.88
2022-10-20T12:15:55.597Z,13.94
2022-10-20T12:18:33.687Z,13.99
2022-10-20T12:21:20.680Z,14.24
2022-10-20T12:23:49.247Z,14.17
2022-10-20T12:26:42.518Z,14.39
2022-10-20T12:29:30.211Z,14.51
2022-10-20T12:32:22.025Z,14.43
2022-10-20T12:34:56.938Z,14.42
2022-10-20T12:37:33.155Z,14.48
2022-10-20T12:40:25.885Z,14.47
2022-10-20T12:42:55.076Z,14.37
2022-10-20T12:45:37.899Z,14.11
2022-10-20T12:48:07.608Z,13.83
2022-10-20T12:50:48.122Z,13.83
2022-10-20T13:01:23.370Z,14.12
2022-10-20T13:05:00.430Z,14.22
2022-10-20T13:15:06.185Z,14.33
2022-10-20T13:17:48.171Z,14.45
2022-10-20T13:20:24.650Z,14.42
2022-10-20T13:22:56.447Z,14.47
2022-10-20T13:25:36.235Z,14.40
2022-10-20T13:28:15.260Z,14.37
2022-10-20T13:31:10.348Z,14.66
2022-10-20T13:34:06.328Z,14.60
2022-10-20T13:37:00.608Z,14.63
2022-10-20T13:39:57.575Z,14.92
2022-10-20T13:43:18.514Z,14.84
2022-10-20T13:46:16.911Z,14.76
2022-10-20T13:49:17.342Z,14.92
2022-10-20T13:51:59.388Z,15.28
2022-10-20T13:54:34.791Z,15.65
2022-10-20T13:57:07.952Z,15.56
2022-10-20T13:59:39.559Z,15.37
2022-10-20T14:02:27.917Z,15.16
2022-10-20T14:05:15.273Z,14.89
2022-10-20T14:07:46.413Z,14.65
2022-10-20T14:10:24.588Z,14.94
2022-10-20T14:12:52.192Z,15.10
2022-10-20T14:15:39.243Z,15.26
2022-10-20T14:18:08.014Z,15.14
2022-10-20T14:20:41.793Z,15.05
2022-10-20T14:23:10.714Z,14.88
2022-10-20T14:25:45.696Z,14.73
2022-10-20T14:28:18.880Z,14.58
2022-10-20T14:30:47.958Z,14.26
2022-10-20T14:33:16.190Z,14.26
2022-10-20T14:35:47.273Z,14.11
2022-10-20T14:38:17.953Z,14.02
2022-10-20T14:40:58.715Z,14.16
2022-10-20T14:43:41.173Z,13.90
2022-10-20T14:46:10.674Z,13.79
2022-10-20T14:48:41.957Z,13.72
2022-10-20T14:51:34.027Z,13.73
2022-10-20T14:54:48.062Z,13.86
2022-10-20T14:57:22.915Z,14.10
2022-10-20T15:10:32.509Z,13.82
2022-10-20T15:13:33.213Z,13.59
2022-10-20T15:16:13.696Z,13.52
2022-10-20T15:19:31.558Z,13.34
2022-10-20T15:22:01.737Z,13.21
2022-10-20T15:24:35.387Z,12.99
2022-10-20T15:27:05.310Z,12.86
2022-10-20T15:29:32.429Z,12.68
2022-10-20T15:31:59.532Z,12.58
2022-10-20T15:34:26.519Z,12.44
2022-10-20T15:36:53.269Z,12.30
2022-10-20T15:39:19.953Z,12.13
2022-10-20T15:41:53.919Z,11.94
2022-10-20T15:44:27.195Z,11.81
2022-10-20T15:46:54.524Z,11.80
2022-10-20T15:49:30.445Z,11.68
2022-10-20T15:52:57.838Z,11.47
2022-10-20T15:55:26.860Z,11.54
2022-10-20T15:58:12.586Z,11.42
2022-10-20T16:00:39.885Z,11.35
2022-10-20T16:10:29.703Z,11.08
2022-10-20T16:13:11.779Z,11.05
2022-10-20T16:15:38.549Z,11.08
2022-10-20T16:18:08.820Z,11.20
2022-10-20T16:20:36.594Z,11.29
2022-10-20T16:23:03.340Z,11.31
2022-10-20T16:25:30.139Z,11.29
2022-10-20T16:27:56.884Z,11.29
2022-10-20T16:30:23.667Z,11.21
2022-10-20T16:32:50.341Z,11.10
2022-10-20T16:35:17.081Z,11.01
2022-10-20T16:37:44.180Z,10.99
2022-10-20T16:40:10.943Z,10.84
2022-10-20T16:42:37.721Z,10.79
2022-10-20T16:45:05.741Z,10.80
2022-10-20T16:47:32.495Z,10.77
2022-10-20T16:49:59.141Z,10.73
2022-10-20T16:52:25.916Z,10.74
2022-10-20T16:54:52.574Z,10.70
2022-10-20T16:57:19.318Z,10.62
2022-10-20T16:59:50.103Z,10.64
2022-10-20T17:02:17.749Z,10.52
2022-10-20T17:04:53.491Z,10.43
2022-10-20T17:07:20.237Z,10.44
2022-10-20T17:09:46.896Z,10.47
2022-10-20T17:12:13.680Z,10.47
2022-10-20T17:14:40.890Z,10.43
2022-10-20T17:17:07.544Z,10.37
2022-10-20T17:19:34.522Z,10.36
2022-10-20T17:22:02.054Z,10.37
2022-10-20T17:24:29.500Z,10.32
2022-10-20T17:39:28.681Z,10.42
2022-10-20T17:41:58.246Z,10.14
2022-10-20T17:44:25.059Z,10.02
2022-10-20T17:46:52.004Z,9.92
2022-10-20T17:49:18.913Z,9.93
2022-10-20T17:51:45.753Z,9.93
2022-10-20T17:54:12.432Z,9.89
2022-10-20T17:56:40.309Z,9.84
2022-10-20T17:59:08.776Z,9.82
2022-10-20T18:01:38.167Z,9.81
2022-10-20T18:04:10.664Z,9.62
2022-10-20T18:06:38.340Z,9.69
2022-10-20T18:09:08.395Z,9.60
2022-10-20T18:11:35.842Z,9.59
2022-10-20T18:14:03.506Z,9.58
2022-10-20T18:16:33.084Z,9.56
2022-10-20T18:19:00.733Z,9.49
2022-10-20T18:21:28.575Z,9.58
2022-10-20T18:23:56.725Z,9.60
2022-10-20T18:26:24.019Z,9.55
2022-10-20T18:28:50.989Z,9.54
2022-10-20T18:31:23.185Z,9.49
2022-10-20T18:33:52.736Z,9.48
2022-10-20T18:36:19.765Z,9.43
2022-10-20T18:38:47.443Z,9.38
2022-10-20T18:41:22.935Z,9.46
2022-10-20T18:43:57.772Z,9.46
2022-10-20T18:46:29.065Z,9.45
2022-10-20T18:48:55.836Z,9.36
2022-10-20T18:51:23.047Z,9.30
2022-10-20T18:53:54.976Z,9.32
2022-10-20T18:56:25.662Z,9.26
2022-10-20T18:58:53.400Z,9.15
2022-10-20T19:01:22.943Z,9.23
2022-10-20T19:03:52.379Z,9.18
2022-10-20T19:06:29.894Z,9.21
2022-10-20T19:09:04.955Z,9.22
2022-10-20T19:11:34.416Z,9.17
2022-10-20T19:14:04.255Z,9.11
2022-10-20T19:17:00.097Z,9.08
2022-10-20T19:20:04.825Z,9.12
2022-10-20T19:22:44.170Z,9.12
2022-10-20T19:25:14.913Z,9.21
2022-10-20T19:27:46.359Z,9.26
2022-10-20T19:30:13.575Z,9.29
2022-10-20T19:32:44.722Z,9.27
2022-10-20T19:35:15.175Z,9.22
2022-10-20T19:37:42.424Z,9.15
2022-10-20T19:42:45.400Z,9.13
2022-10-20T19:45:12.731Z,9.16
2022-10-20T19:47:48.757Z,9.11
2022-10-20T19:50:20.887Z,9.18
2022-10-20T19:52:49.589Z,9.18
2022-10-20T19:55:18.798Z,9.16
2022-10-20T19:57:45.868Z,9.15
2022-10-20T20:00:21.503Z,9.11
2022-10-20T20:02:58.827Z,9.14
2022-10-20T20:08:59.471Z,8.99
2022-10-20T20:11:31.181Z,9.01
2022-10-20T20:14:06.355Z,9.00
2022-10-20T20:16:33.580Z,8.89
2022-10-20T20:19:03.526Z,8.91
2022-10-20T20:21:36.310Z,8.95
2022-10-20T20:24:23.782Z,8.80
2022-10-20T20:26:50.831Z,8.73
2022-10-20T20:29:25.874Z,8.72
2022-10-20T20:31:58.344Z,8.68
2022-10-20T20:34:25.743Z,8.66
2022-10-20T20:36:57.957Z,8.59
2022-10-20T20:39:30.884Z,8.68
2022-10-20T20:42:01.318Z,8.68
2022-10-20T20:44:38.603Z,8.61
2022-10-20T20:47:33.732Z,8.50
2022-10-20T20:50:05.731Z,8.55
2022-10-20T20:52:36.116Z,8.46
2022-10-20T20:55:08.088Z,8.45
2022-10-20T20:57:38.581Z,8.50
2022-10-20T21:00:06.185Z,8.46
2022-10-20T21:02:36.636Z,8.46
2022-10-20T21:05:04.092Z,8.52
2022-10-20T21:07:35.651Z,8.49
2022-10-20T21:10:05.853Z,8.52
2022-10-20T21:12:35.940Z,8.61
2022-10-20T21:15:16.942Z,8.62
2022-10-20T21:17:55.110Z,8.64
2022-10-20T21:20:22.047Z,8.61
2022-10-20T21:22:48.847Z,8.62
2022-10-20T21:25:15.719Z,8.70
2022-10-20T21:27:42.550Z,8.64
2022-10-20T21:30:09.778Z,8.67
2022-10-20T21:32:36.856Z,8.70
2022-10-20T21:35:06.306Z,8.72
2022-10-20T21:37:33.061Z,8.71
2022-10-20T21:39:59.811Z,8.68
2022-10-20T21:42:29.248Z,8.67
2022-10-20T21:44:59.192Z,8.66
2022-10-20T21:47:28.321Z,8.68
2022-10-20T21:49:55.171Z,8.72
2022-10-20T21:52:21.897Z,8.74
2022-10-20T21:54:48.664Z,8.68
2022-10-20T21:57:19.592Z,8.66
2022-10-20T21:59:52.562Z,8.68
2022-10-20T22:02:22.323Z,8.70
2022-10-20T22:04:49.331Z,8.77
2022-10-20T22:07:21.618Z,8.81
2022-10-20T22:09:48.648Z,8.81
2022-10-20T22:12:19.954Z,8.80
2022-10-20T22:14:49.715Z,8.83
2022-10-20T22:17:27.377Z,8.82
2022-10-20T22:19:57.653Z,8.85
2022-10-20T22:22:31.097Z,8.88
2022-10-20T22:24:58.187Z,8.90
2022-10-20T22:27:41.908Z,8.88
2022-10-20T22:30:20.747Z,8.89
2022-10-20T22:32:51.126Z,8.88
2022-10-20T22:35:24.274Z,8.93
2022-10-20T22:38:05.037Z,8.92
2022-10-20T22:40:37.411Z,8.92
2022-10-20T22:43:16.373Z,8.98
2022-10-20T22:45:54.333Z,8.92
2022-10-20T22:48:29.288Z,8.92
2022-10-20T22:51:00.851Z,8.91
2022-10-20T22:53:45.639Z,8.89
2022-10-20T22:56:30.403Z,8.82
2022-10-20T22:59:04.283Z,8.84
2022-10-20T23:01:38.786Z,8.91
2022-10-20T23:04:08.423Z,8.79
2022-10-20T23:06:40.365Z,8.88
2022-10-20T23:09:10.457Z,8.89
2022-10-20T23:11:41.717Z,8.90
2022-10-20T23:14:14.147Z,8.87
2022-10-20T23:16:43.413Z,8.88
2022-10-20T23:19:10.641Z,8.94
2022-10-20T23:21:40.206Z,8.90
2022-10-20T23:24:10.507Z,8.88
2022-10-20T23:26:37.669Z,8.90
2022-10-20T23:29:11.565Z,8.87
2022-10-20T23:31:50.125Z,8.83
2022-10-20T23:34:17.275Z,8.85
2022-10-20T23:36:55.874Z,8.85
2022-10-20T23:39:30.977Z,8.82
2022-10-20T23:42:08.573Z,8.84
2022-10-20T23:44:35.859Z,8.83
2022-10-20T23:47:04.556Z,8.83
2022-10-20T23:49:31.839Z,8.83
2022-10-20T23:51:58.856Z,8.84
2022-10-20T23:54:47.248Z,8.83
2022-10-20T23:57:16.899Z,8.81
2022-10-20T23:59:43.878Z,8.74
